Time;durP1;ratioP1;P1;durP2;ratioP2;P2;SDS_P1;SDS_P2;PMS_P1;PMS_P2;Temp;Humidity;BMP_temperature;BMP_pressure;BME280_temperature;BME280_humidity;BME280_pressure;Samples;Min_cycle;Max_cycle;Signal;HPM_P1;HPM_P2
2021/10/13 00:01:41;;;;;;;;;;;18.60;69.70;;;;;;4959442;28;95323;-52
2021/10/13 00:04:12;;;;;;;;;;;18.60;69.60;;;;;;4962376;28;97927;-51
2021/10/13 00:06:43;;;;;;;;;;;18.70;69.50;;;;;;4957313;28;96498;-50
2021/10/13 00:09:13;;;;;;;;;;;18.80;68.10;;;;;;4959179;28;96134;-51
2021/10/13 00:11:42;;;;;;;;;;;18.80;67.60;;;;;;4961758;28;95914;-49
2021/10/13 00:14:14;;;;;;;;;;;18.80;68.20;;;;;;4958404;28;95805;-56
2021/10/13 00:16:53;;;;;;;;;;;18.80;67.80;;;;;;4956322;28;95846;-54
2021/10/13 00:19:25;;;;;;;;;;;18.80;66.90;;;;;;4959560;28;96787;-52
2021/10/13 00:21:55;;;;;;;;;;;18.80;67.50;;;;;;4968774;28;95921;-50
2021/10/13 00:24:24;;;;;;;;;;;18.90;67.30;;;;;;4961527;28;95742;-57
2021/10/13 00:26:55;;;;;;;;;;;18.90;65.90;;;;;;4967997;28;97184;-50
2021/10/13 00:29:24;;;;;;;;;;;18.90;66.00;;;;;;4963329;28;95454;-52
2021/10/13 00:31:53;;;;;;;;;;;18.90;66.00;;;;;;4970198;28;95526;-50
2021/10/13 00:34:23;;;;;;;;;;;18.90;65.80;;;;;;4968992;28;95861;-50
2021/10/13 00:36:53;;;;;;;;;;;19.00;65.80;;;;;;4959556;28;96373;-54
2021/10/13 00:39:23;;;;;;;;;;;19.00;65.80;;;;;;4963905;28;95869;-56
2021/10/13 00:41:54;;;;;;;;;;;19.00;65.60;;;;;;4966703;28;95211;-57
2021/10/13 00:44:23;;;;;;;;;;;19.10;65.40;;;;;;4968877;28;95991;-53
2021/10/13 00:46:53;;;;;;;;;;;19.10;65.50;;;;;;4966476;28;95809;-59
2021/10/13 00:49:23;;;;;;;;;;;19.10;65.40;;;;;;4969390;28;95854;-52
2021/10/13 00:51:54;;;;;;;;;;;19.20;65.40;;;;;;4960380;28;96916;-60
2021/10/13 00:54:24;;;;;;;;;;;19.20;65.40;;;;;;4957808;28;96378;-54
2021/10/13 00:56:55;;;;;;;;;;;19.20;65.70;;;;;;4957531;28;96431;-54
2021/10/13 00:59:25;;;;;;;;;;;19.20;65.60;;;;;;4965415;28;95918;-53
2021/10/13 01:02:13;;;;;;;;;;;19.20;65.30;;;;;;4966953;28;95547;-55
2021/10/13 01:04:50;;;;;;;;;;;19.20;65.40;;;;;;4967533;28;95953;-55
2021/10/13 01:07:40;;;;;;;;;;;19.20;65.70;;;;;;4959586;28;95770;-55
2021/10/13 01:10:21;;;;;;;;;;;19.20;65.70;;;;;;4959957;28;96672;-60
2021/10/13 01:12:57;;;;;;;;;;;19.20;65.90;;;;;;4959024;28;95595;-57
2021/10/13 01:15:31;;;;;;;;;;;19.20;65.90;;;;;;4964884;28;95874;-52
2021/10/13 01:18:13;;;;;;;;;;;19.40;65.80;;;;;;4955136;28;95839;-63
2021/10/13 01:20:51;;;;;;;;;;;19.50;65.80;;;;;;4964145;28;95825;-61
2021/10/13 01:23:26;;;;;;;;;;;19.60;65.70;;;;;;4962886;28;95760;-61
2021/10/13 01:26:03;;;;;;;;;;;19.70;65.70;;;;;;4964012;28;95521;-59
2021/10/13 01:28:37;;;;;;;;;;;19.80;65.60;;;;;;4969214;28;96461;-54
2021/10/13 01:31:16;;;;;;;;;;;19.90;65.30;;;;;;4964676;28;97884;-62
2021/10/13 01:34:09;;;;;;;;;;;19.90;65.20;;;;;;4966620;28;95751;-63
2021/10/13 01:36:44;;;;;;;;;;;19.90;65.50;;;;;;4949872;28;95822;-63
2021/10/13 01:39:14;;;;;;;;;;;19.90;65.50;;;;;;4970736;28;95658;-62
2021/10/13 01:41:47;;;;;;;;;;;20.10;65.60;;;;;;4969609;28;96415;-62
2021/10/13 01:44:19;;;;;;;;;;;20.20;65.60;;;;;;4971204;28;95419;-63
2021/10/13 01:46:49;;;;;;;;;;;20.30;65.40;;;;;;4970189;28;95212;-65
2021/10/13 01:49:21;;;;;;;;;;;20.50;65.30;;;;;;4966159;28;98824;-62
2021/10/13 01:51:52;;;;;;;;;;;20.60;63.10;;;;;;4967884;28;96912;-61
2021/10/13 01:54:24;;;;;;;;;;;20.70;64.90;;;;;;4969918;28;95693;-61
2021/10/13 01:56:55;;;;;;;;;;;20.80;64.90;;;;;;4968576;28;95668;-64
2021/10/13 01:59:29;;;;;;;;;;;20.90;64.70;;;;;;4964050;28;95738;-63
2021/10/13 02:02:01;;;;;;;;;;;21.10;64.50;;;;;;4967126;28;97073;-62
2021/10/13 02:04:38;;;;;;;;;;;21.10;64.40;;;;;;4968495;28;95682;-59
2021/10/13 02:07:11;;;;;;;;;;;21.20;62.30;;;;;;4969018;28;96053;-59
2021/10/13 02:09:41;;;;;;;;;;;21.10;62.30;;;;;;4964677;28;95910;-59
2021/10/13 02:12:12;;;;;;;;;;;21.00;62.40;;;;;;4958320;28;96395;-59
2021/10/13 02:14:43;;;;;;;;;;;21.00;62.40;;;;;;4956147;28;96438;-64
2021/10/13 02:17:15;;;;;;;;;;;21.00;62.30;;;;;;4961330;28;96160;-59
2021/10/13 02:19:46;;;;;;;;;;;20.90;62.20;;;;;;4961480;28;96540;-63
2021/10/13 02:22:17;;;;;;;;;;;20.90;62.20;;;;;;4966064;28;95796;-59
2021/10/13 02:24:48;;;;;;;;;;;20.90;62.20;;;;;;4965971;28;95220;-59
2021/10/13 02:27:20;;;;;;;;;;;20.80;62.00;;;;;;4961319;28;95282;-63
2021/10/13 02:29:49;;;;;;;;;;;20.80;62.60;;;;;;4964806;28;96184;-63
2021/10/13 02:32:18;;;;;;;;;;;20.70;62.90;;;;;;4969174;28;95692;-58
2021/10/13 02:34:48;;;;;;;;;;;20.70;63.10;;;;;;4963813;28;98157;-60
2021/10/13 02:37:19;;;;;;;;;;;20.60;63.60;;;;;;4965833;28;97304;-59
2021/10/13 02:39:50;;;;;;;;;;;20.60;61.50;;;;;;4963108;28;95881;-64
2021/10/13 02:42:21;;;;;;;;;;;20.60;64.00;;;;;;4962041;28;96497;-60
2021/10/13 02:44:50;;;;;;;;;;;20.50;64.20;;;;;;4963962;28;95938;-60
2021/10/13 02:47:22;;;;;;;;;;;20.50;64.50;;;;;;4956056;28;96080;-63
2021/10/13 02:50:01;;;;;;;;;;;20.50;64.60;;;;;;4957367;28;98541;-58
2021/10/13 02:52:43;;;;;;;;;;;20.40;63.40;;;;;;4955991;28;95657;-60
2021/10/13 02:55:20;;;;;;;;;;;20.30;64.90;;;;;;4957666;28;95666;-66
2021/10/13 02:57:58;;;;;;;;;;;20.30;65.10;;;;;;4961494;28;95286;-64
2021/10/13 03:00:32;;;;;;;;;;;20.30;65.40;;;;;;4963006;28;96618;-64
2021/10/13 03:03:06;;;;;;;;;;;20.30;65.00;;;;;;4964857;28;95698;-62
2021/10/13 03:05:36;;;;;;;;;;;20.30;65.00;;;;;;4958684;28;95736;-60
2021/10/13 03:08:09;;;;;;;;;;;20.40;65.10;;;;;;4958999;28;95444;-64
2021/10/13 03:10:41;;;;;;;;;;;20.50;65.10;;;;;;4958486;28;95891;-63
2021/10/13 03:13:14;;;;;;;;;;;20.60;63.00;;;;;;4963873;28;95525;-57
2021/10/13 03:15:45;;;;;;;;;;;20.70;65.10;;;;;;4963594;28;95993;-61
2021/10/13 03:18:16;;;;;;;;;;;20.80;65.10;;;;;;4958379;28;95982;-60
2021/10/13 03:20:48;;;;;;;;;;;20.80;65.10;;;;;;4962381;28;96021;-61
2021/10/13 03:23:19;;;;;;;;;;;20.90;65.10;;;;;;4956608;28;96409;-58
2021/10/13 03:25:51;;;;;;;;;;;20.90;65.10;;;;;;4966163;28;95668;-51
2021/10/13 03:28:21;;;;;;;;;;;21.00;65.00;;;;;;4967289;28;95402;-60
2021/10/13 03:30:51;;;;;;;;;;;21.00;65.10;;;;;;4966690;28;96127;-58
2021/10/13 03:33:22;;;;;;;;;;;21.10;65.10;;;;;;4965208;28;95754;-61
2021/10/13 03:35:56;;;;;;;;;;;21.10;65.00;;;;;;4964624;28;96871;-56
2021/10/13 03:38:27;;;;;;;;;;;21.20;65.00;;;;;;4959514;28;95927;-59
2021/10/13 03:40:58;;;;;;;;;;;21.30;65.00;;;;;;4966634;28;95891;-60
2021/10/13 03:43:28;;;;;;;;;;;21.30;64.90;;;;;;4965588;28;95885;-60
2021/10/13 03:45:57;;;;;;;;;;;21.40;64.90;;;;;;4958706;28;95581;-63
2021/10/13 03:48:30;;;;;;;;;;;21.40;64.80;;;;;;4967452;28;95228;-61
2021/10/13 03:51:00;;;;;;;;;;;21.50;62.90;;;;;;4964651;28;96066;-62
2021/10/13 03:53:32;;;;;;;;;;;21.50;64.70;;;;;;4965452;28;96121;-61
2021/10/13 03:56:04;;;;;;;;;;;21.50;64.80;;;;;;4967477;28;95412;-60
2021/10/13 03:58:35;;;;;;;;;;;21.60;64.90;;;;;;4967969;28;98276;-60
2021/10/13 04:01:05;;;;;;;;;;;21.60;64.50;;;;;;4967788;28;96493;-60
2021/10/13 04:03:36;;;;;;;;;;;21.60;64.90;;;;;;4968759;28;95630;-61
2021/10/13 04:06:08;;;;;;;;;;;21.60;64.80;;;;;;4967057;28;95523;-56
2021/10/13 04:08:39;;;;;;;;;;;21.60;64.90;;;;;;4967749;28;95327;-61
2021/10/13 04:11:09;;;;;;;;;;;21.70;65.00;;;;;;4969961;28;95766;-59
2021/10/13 04:13:40;;;;;;;;;;;21.70;62.80;;;;;;4968309;28;96005;-55
2021/10/13 04:16:11;;;;;;;;;;;21.80;65.10;;;;;;4964772;28;95928;-56
2021/10/13 04:18:42;;;;;;;;;;;21.70;62.50;;;;;;4960309;28;95825;-62
2021/10/13 04:21:11;;;;;;;;;;;21.60;62.20;;;;;;4969272;28;96824;-54
2021/10/13 04:23:41;;;;;;;;;;;21.40;62.40;;;;;;4966468;28;96110;-58
2021/10/13 04:26:11;;;;;;;;;;;21.40;61.80;;;;;;4966224;28;95865;-63
2021/10/13 04:28:43;;;;;;;;;;;21.30;61.90;;;;;;4967038;28;97734;-64
2021/10/13 04:31:15;;;;;;;;;;;21.20;61.90;;;;;;4967065;28;95872;-56
2021/10/13 04:33:44;;;;;;;;;;;21.10;62.60;;;;;;4965775;28;95773;-59
2021/10/13 04:36:15;;;;;;;;;;;21.10;62.90;;;;;;4967730;28;96558;-59
2021/10/13 04:38:46;;;;;;;;;;;21.10;63.40;;;;;;4967328;28;95412;-54
2021/10/13 04:41:17;;;;;;;;;;;21.10;63.60;;;;;;4967310;28;96570;-57
2021/10/13 04:43:46;;;;;;;;;;;21.20;63.70;;;;;;4964072;28;96751;-58
2021/10/13 04:46:16;;;;;;;;;;;21.30;63.80;;;;;;4966567;28;96132;-65
2021/10/13 04:48:47;;;;;;;;;;;21.30;63.80;;;;;;4971707;28;95518;-63
2021/10/13 04:51:17;;;;;;;;;;;21.40;63.90;;;;;;4967155;28;95771;-63
2021/10/13 04:53:48;;;;;;;;;;;21.40;62.90;;;;;;4967056;28;96021;-58
2021/10/13 04:56:18;;;;;;;;;;;21.30;62.00;;;;;;4967196;28;96743;-53
2021/10/13 04:58:49;;;;;;;;;;;21.30;62.50;;;;;;4966184;28;96179;-62
2021/10/13 05:01:19;;;;;;;;;;;21.30;62.80;;;;;;4967947;28;96345;-58
2021/10/13 05:03:50;;;;;;;;;;;21.20;63.00;;;;;;4964644;28;95979;-64
2021/10/13 05:06:23;;;;;;;;;;;21.30;63.50;;;;;;4964043;28;95842;-62
2021/10/13 05:08:54;;;;;;;;;;;21.30;63.60;;;;;;4964222;28;95967;-57
2021/10/13 05:11:24;;;;;;;;;;;21.40;63.50;;;;;;4965377;28;96451;-64
2021/10/13 05:13:55;;;;;;;;;;;21.40;63.40;;;;;;4965194;28;95873;-56
2021/10/13 05:16:25;;;;;;;;;;;21.40;63.30;;;;;;4958890;28;95891;-58
2021/10/13 05:18:56;;;;;;;;;;;21.50;63.30;;;;;;4961398;28;96538;-59
2021/10/13 05:21:26;;;;;;;;;;;21.50;63.20;;;;;;4967014;28;95993;-60
2021/10/13 05:23:56;;;;;;;;;;;21.50;63.10;;;;;;4966454;28;95766;-63
2021/10/13 05:26:26;;;;;;;;;;;21.60;63.30;;;;;;4969075;28;95994;-63
2021/10/13 05:28:56;;;;;;;;;;;21.60;63.40;;;;;;4968108;28;96119;-57
2021/10/13 05:31:25;;;;;;;;;;;21.70;63.60;;;;;;4965264;28;95806;-56
2021/10/13 05:33:56;;;;;;;;;;;21.70;63.70;;;;;;4966413;28;95969;-62
2021/10/13 05:36:27;;;;;;;;;;;21.80;63.80;;;;;;4967897;28;96949;-60
2021/10/13 05:38:58;;;;;;;;;;;21.80;63.90;;;;;;4966292;28;95858;-58
2021/10/13 05:41:28;;;;;;;;;;;21.80;63.90;;;;;;4962889;28;95986;-60
2021/10/13 05:43:58;;;;;;;;;;;21.90;64.00;;;;;;4967254;28;95787;-62
2021/10/13 05:46:28;;;;;;;;;;;21.90;64.10;;;;;;4966839;28;95999;-61
2021/10/13 05:48:58;;;;;;;;;;;22.00;64.00;;;;;;4966412;28;96084;-64
2021/10/13 05:51:29;;;;;;;;;;;22.10;64.10;;;;;;4966650;28;96498;-58
2021/10/13 05:54:00;;;;;;;;;;;22.10;64.10;;;;;;4963907;28;95965;-54
2021/10/13 05:56:30;;;;;;;;;;;22.10;64.10;;;;;;4966876;28;95705;-59
2021/10/13 05:59:01;;;;;;;;;;;22.20;64.20;;;;;;4998736;28;95721;-53
2021/10/13 06:01:30;;;;;;;;;;;22.20;64.20;;;;;;4965305;28;98366;-59
2021/10/13 06:04:02;;;;;;;;;;;22.20;64.30;;;;;;4965205;28;97314;-59
2021/10/13 06:06:32;;;;;;;;;;;22.20;64.30;;;;;;4966488;28;95573;-62
2021/10/13 06:09:01;;;;;;;;;;;22.20;64.40;;;;;;4968798;28;95847;-64
2021/10/13 06:11:31;;;;;;;;;;;22.20;64.50;;;;;;4964388;28;95900;-62
2021/10/13 06:14:02;;;;;;;;;;;22.30;64.60;;;;;;4967489;28;96762;-64
2021/10/13 06:16:33;;;;;;;;;;;22.30;64.60;;;;;;4957088;28;95397;-63
2021/10/13 06:19:04;;;;;;;;;;;22.30;64.60;;;;;;4964559;28;98236;-62
2021/10/13 06:21:35;;;;;;;;;;;22.30;64.70;;;;;;4966165;28;95945;-61
2021/10/13 06:24:04;;;;;;;;;;;22.30;64.80;;;;;;4965194;28;96384;-64
2021/10/13 06:26:33;;;;;;;;;;;22.30;62.40;;;;;;4968082;28;95942;-60
2021/10/13 06:29:03;;;;;;;;;;;22.10;61.90;;;;;;4966705;28;96036;-63
2021/10/13 06:31:33;;;;;;;;;;;22.00;62.20;;;;;;4967109;28;95814;-63
2021/10/13 06:34:05;;;;;;;;;;;22.00;62.90;;;;;;4966682;28;96088;-59
2021/10/13 06:36:38;;;;;;;;;;;21.90;62.80;;;;;;4967095;28;95387;-60
2021/10/13 06:39:09;;;;;;;;;;;21.80;62.80;;;;;;4966078;28;96335;-65
2021/10/13 06:41:39;;;;;;;;;;;21.70;63.00;;;;;;4965246;28;95865;-58
2021/10/13 06:44:11;;;;;;;;;;;21.70;63.00;;;;;;4964593;28;95413;-64
2021/10/13 06:46:42;;;;;;;;;;;21.60;63.10;;;;;;4966824;28;95997;-62
2021/10/13 06:49:16;;;;;;;;;;;21.60;63.20;;;;;;4966825;28;95728;-57
2021/10/13 06:51:49;;;;;;;;;;;21.60;63.30;;;;;;4966892;28;97003;-63
2021/10/13 06:54:19;;;;;;;;;;;21.50;63.30;;;;;;4965761;28;96902;-57
2021/10/13 06:56:50;;;;;;;;;;;21.50;63.40;;;;;;4962158;28;95865;-58
2021/10/13 06:59:21;;;;;;;;;;;21.50;63.40;;;;;;4966272;28;95948;-63
2021/10/13 07:01:51;;;;;;;;;;;21.40;63.60;;;;;;4963147;28;95681;-57
2021/10/13 07:04:23;;;;;;;;;;;21.30;63.70;;;;;;4963956;28;95906;-62
2021/10/13 07:06:55;;;;;;;;;;;21.30;63.80;;;;;;4964412;28;95802;-63
2021/10/13 07:09:24;;;;;;;;;;;21.20;63.90;;;;;;4962373;28;95689;-57
2021/10/13 07:11:54;;;;;;;;;;;21.20;64.00;;;;;;4964181;28;97400;-63
2021/10/13 07:14:26;;;;;;;;;;;21.20;64.10;;;;;;4965445;28;95995;-57
2021/10/13 07:16:56;;;;;;;;;;;21.10;64.20;;;;;;4958306;28;96511;-57
2021/10/13 07:19:27;;;;;;;;;;;21.10;64.40;;;;;;4963330;28;96026;-62
2021/10/13 07:21:58;;;;;;;;;;;21.10;64.60;;;;;;4965903;28;95966;-58
2021/10/13 07:24:28;;;;;;;;;;;21.10;64.70;;;;;;4960700;28;96505;-58
2021/10/13 07:26:59;;;;;;;;;;;21.10;64.80;;;;;;4962895;28;95937;-59
2021/10/13 07:29:30;;;;;;;;;;;21.00;64.70;;;;;;4959224;28;97689;-58
2021/10/13 07:32:01;;;;;;;;;;;21.00;65.30;;;;;;4962458;28;96035;-63
2021/10/13 07:34:31;;;;;;;;;;;21.00;65.50;;;;;;4966527;28;95759;-57
2021/10/13 07:37:03;;;;;;;;;;;21.00;65.70;;;;;;4965308;28;96496;-58
2021/10/13 07:39:34;;;;;;;;;;;21.00;65.80;;;;;;4966314;28;96641;-58
2021/10/13 07:42:05;;;;;;;;;;;21.00;65.00;;;;;;4965498;28;96634;-57
2021/10/13 07:44:35;;;;;;;;;;;20.90;66.40;;;;;;4962688;28;95857;-57
2021/10/13 07:47:05;;;;;;;;;;;20.90;66.60;;;;;;4963847;28;96547;-57
2021/10/13 07:49:37;;;;;;;;;;;20.90;66.90;;;;;;4967028;28;95315;-63
2021/10/13 07:52:09;;;;;;;;;;;20.90;66.90;;;;;;4966179;28;96435;-63
2021/10/13 07:54:39;;;;;;;;;;;20.90;66.90;;;;;;4966915;28;95817;-58
2021/10/13 07:57:09;;;;;;;;;;;20.80;67.10;;;;;;4964434;28;95666;-59
2021/10/13 07:59:40;;;;;;;;;;;20.80;67.20;;;;;;4965302;28;95991;-59
2021/10/13 08:02:11;;;;;;;;;;;20.80;67.40;;;;;;4962166;28;96118;-58
2021/10/13 08:04:43;;;;;;;;;;;20.80;67.60;;;;;;4963158;28;95910;-59
2021/10/13 08:07:13;;;;;;;;;;;20.80;68.40;;;;;;4962851;28;96572;-57
2021/10/13 08:09:44;;;;;;;;;;;20.80;68.70;;;;;;4962096;28;96451;-58
2021/10/13 08:12:15;;;;;;;;;;;20.80;68.80;;;;;;4961736;28;96563;-57
2021/10/13 08:14:45;;;;;;;;;;;20.70;68.80;;;;;;4964604;28;95794;-58
2021/10/13 08:17:15;;;;;;;;;;;20.70;68.60;;;;;;4955130;28;96139;-58
2021/10/13 08:19:46;;;;;;;;;;;20.60;68.80;;;;;;4962257;28;95980;-61
2021/10/13 08:22:16;;;;;;;;;;;20.60;68.80;;;;;;4964596;28;96394;-57
2021/10/13 08:24:47;;;;;;;;;;;20.60;68.70;;;;;;4963930;28;95903;-63
2021/10/13 08:27:16;;;;;;;;;;;20.50;68.60;;;;;;4963976;28;96817;-63
2021/10/13 08:29:45;;;;;;;;;;;20.50;68.60;;;;;;4965419;28;97824;-58
2021/10/13 08:32:16;;;;;;;;;;;20.50;68.50;;;;;;4964744;28;95799;-63
2021/10/13 08:34:46;;;;;;;;;;;20.50;68.50;;;;;;4964123;28;95804;-60
2021/10/13 08:37:16;;;;;;;;;;;20.40;68.50;;;;;;4963391;28;96008;-62
2021/10/13 08:39:47;;;;;;;;;;;20.40;68.40;;;;;;4964917;28;96108;-63
2021/10/13 08:42:23;;;;;;;;;;;20.40;68.30;;;;;;4961799;28;96535;-62
2021/10/13 08:44:54;;;;;;;;;;;20.40;68.40;;;;;;4967228;28;95867;-60
2021/10/13 08:47:24;;;;;;;;;;;20.40;68.40;;;;;;4969062;28;96376;-63
2021/10/13 08:49:56;;;;;;;;;;;20.30;68.20;;;;;;4967075;28;96702;-60
2021/10/13 08:52:29;;;;;;;;;;;20.30;68.20;;;;;;4968007;28;96096;-60
2021/10/13 08:55:01;;;;;;;;;;;20.30;65.90;;;;;;4965896;28;95948;-57
2021/10/13 08:57:31;;;;;;;;;;;20.30;67.90;;;;;;4960538;28;95861;-59
2021/10/13 09:00:01;;;;;;;;;;;20.30;67.80;;;;;;4963213;28;95834;-60
2021/10/13 09:02:45;;;;;;;;;;;20.30;67.70;;;;;;4966869;28;96325;-62
2021/10/13 09:05:17;;;;;;;;;;;20.30;67.70;;;;;;4979288;28;95939;-62
2021/10/13 09:07:49;;;;;;;;;;;20.30;67.70;;;;;;4970021;28;95778;-59
2021/10/13 09:10:31;;;;;;;;;;;20.30;67.60;;;;;;4983517;28;95964;-61
2021/10/13 09:13:03;;;;;;;;;;;20.30;67.60;;;;;;4963310;28;95840;-62
2021/10/13 09:15:33;;;;;;;;;;;20.30;67.50;;;;;;4964004;28;95545;-61
2021/10/13 09:18:05;;;;;;;;;;;20.30;67.50;;;;;;4954655;28;95923;-62
2021/10/13 09:20:39;;;;;;;;;;;20.30;67.40;;;;;;4962534;28;97216;-58
2021/10/13 09:23:32;;;;;;;;;;;20.30;67.50;;;;;;4965607;28;95952;-62
2021/10/13 09:26:11;;;;;;;;;;;20.30;67.60;;;;;;4968093;28;96250;-61
2021/10/13 09:28:41;;;;;;;;;;;20.20;67.40;;;;;;4968763;28;96074;-61
2021/10/13 09:31:12;;;;;;;;;;;20.20;67.40;;;;;;4968250;28;95292;-61
2021/10/13 09:33:55;;;;;;;;;;;20.20;67.40;;;;;;4963931;28;95962;-61
2021/10/13 09:36:36;;;;;;;;;;;20.20;65.30;;;;;;4966304;28;95989;-60
2021/10/13 09:39:09;;;;;;;;;;;20.20;67.40;;;;;;4965776;28;95720;-61
2021/10/13 09:41:59;;;;;;;;;;;20.20;67.40;;;;;;4966898;28;95731;-58
2021/10/13 09:44:31;;;;;;;;;;;20.20;67.40;;;;;;4968321;28;95859;-56
2021/10/13 09:47:01;;;;;;;;;;;20.20;67.40;;;;;;4965578;28;96380;-60
2021/10/13 09:49:37;;;;;;;;;;;20.20;67.40;;;;;;4966992;28;97227;-60
2021/10/13 09:52:12;;;;;;;;;;;20.10;67.40;;;;;;4970664;28;95901;-59
2021/10/13 09:54:44;;;;;;;;;;;20.10;67.30;;;;;;4999983;28;96095;-60
2021/10/13 09:57:25;;;;;;;;;;;20.10;67.30;;;;;;4967987;28;95827;-59
2021/10/13 09:59:56;;;;;;;;;;;20.10;67.30;;;;;;4969892;28;95343;-59
2021/10/13 10:02:28;;;;;;;;;;;20.10;67.30;;;;;;4970471;28;95666;-60
2021/10/13 10:05:04;;;;;;;;;;;20.10;67.30;;;;;;4968888;28;95854;-65
2021/10/13 10:07:40;;;;;;;;;;;20.10;67.30;;;;;;4970871;28;96105;-64
2021/10/13 10:10:12;;;;;;;;;;;20.00;67.50;;;;;;5004998;28;95703;-65
2021/10/13 10:13:02;;;;;;;;;;;20.00;67.50;;;;;;4973909;28;95572;-65
2021/10/13 10:15:33;;;;;;;;;;;20.00;67.50;;;;;;4954683;28;95841;-65
2021/10/13 10:18:23;;;;;;;;;;;20.00;67.40;;;;;;4957773;28;96230;-65
2021/10/13 10:20:54;;;;;;;;;;;20.00;67.40;;;;;;4966600;28;95687;-65
2021/10/13 10:23:27;;;;;;;;;;;20.00;67.40;;;;;;4963219;28;95721;-65
2021/10/13 10:25:57;;;;;;;;;;;19.90;67.30;;;;;;4966071;28;95796;-66
2021/10/13 10:28:45;;;;;;;;;;;19.90;67.40;;;;;;4959439;28;95326;-65
2021/10/13 10:31:30;;;;;;;;;;;19.90;65.10;;;;;;4966536;28;97895;-65
2021/10/13 10:34:09;;;;;;;;;;;19.90;67.30;;;;;;4970886;28;95858;-65
2021/10/13 10:37:04;;;;;;;;;;;19.90;67.40;;;;;;4968445;28;96805;-65
2021/10/13 10:39:56;;;;;;;;;;;19.90;67.40;;;;;;4965498;28;95772;-66
2021/10/13 10:42:45;;;;;;;;;;;19.80;67.40;;;;;;4960808;28;95901;-65
2021/10/13 10:45:16;;;;;;;;;;;19.80;67.40;;;;;;4990059;28;95758;-63
2021/10/13 10:47:48;;;;;;;;;;;19.80;67.40;;;;;;4963041;28;96403;-63
2021/10/13 10:50:32;;;;;;;;;;;19.80;67.40;;;;;;4964587;28;95816;-63
2021/10/13 10:53:18;;;;;;;;;;;19.70;67.30;;;;;;4963345;28;95730;-64
2021/10/13 10:55:51;;;;;;;;;;;19.70;67.40;;;;;;4958876;28;95770;-63
2021/10/13 10:58:23;;;;;;;;;;;19.70;67.40;;;;;;4961436;28;96641;-62
2021/10/13 11:01:18;;;;;;;;;;;19.70;67.40;;;;;;4958852;28;95655;-62
2021/10/13 11:03:49;;;;;;;;;;;19.70;68.00;;;;;;4961952;28;95863;-65
2021/10/13 11:06:21;;;;;;;;;;;19.60;67.40;;;;;;4965978;28;97990;-65
2021/10/13 11:08:52;;;;;;;;;;;19.60;67.50;;;;;;4994067;28;95922;-66
2021/10/13 11:11:27;;;;;;;;;;;19.60;67.40;;;;;;4959794;28;97576;-66
2021/10/13 11:13:58;;;;;;;;;;;19.60;67.50;;;;;;4958247;28;95711;-65
2021/10/13 11:16:34;;;;;;;;;;;19.60;67.40;;;;;;4955632;28;95401;-65
2021/10/13 11:19:22;;;;;;;;;;;19.60;67.50;;;;;;4961609;28;96002;-65
2021/10/13 11:22:03;;;;;;;;;;;19.60;67.40;;;;;;4997360;28;96130;-65
2021/10/13 11:24:34;;;;;;;;;;;19.50;67.50;;;;;;4965582;28;95907;-65
2021/10/13 11:27:03;;;;;;;;;;;19.50;67.50;;;;;;4968223;28;95842;-61
2021/10/13 11:29:35;;;;;;;;;;;19.50;67.50;;;;;;4969995;28;95780;-65
2021/10/13 11:32:15;;;;;;;;;;;19.50;67.50;;;;;;4970582;28;95355;-65
2021/10/13 11:35:00;;;;;;;;;;;19.50;67.50;;;;;;4977049;28;95794;-60
2021/10/13 11:37:31;;;;;;;;;;;19.50;67.60;;;;;;4971635;28;96243;-65
2021/10/13 11:40:02;;;;;;;;;;;19.40;67.50;;;;;;4968799;28;96376;-60
2021/10/13 11:42:33;;;;;;;;;;;19.40;67.50;;;;;;4970469;28;95888;-60
2021/10/13 11:45:03;;;;;;;;;;;19.40;67.60;;;;;;4968557;28;95272;-60
2021/10/13 11:47:33;;;;;;;;;;;19.40;67.60;;;;;;4971148;28;95921;-61
2021/10/13 11:50:05;;;;;;;;;;;19.40;67.60;;;;;;4970129;28;95839;-62
2021/10/13 11:52:36;;;;;;;;;;;19.40;67.50;;;;;;4968174;28;95557;-59
2021/10/13 11:55:07;;;;;;;;;;;19.30;67.50;;;;;;4969171;28;95847;-60
2021/10/13 11:57:39;;;;;;;;;;;19.30;67.50;;;;;;4962897;28;95683;-60
2021/10/13 12:00:13;;;;;;;;;;;19.30;67.50;;;;;;4965676;28;95853;-61
2021/10/13 12:03:03;;;;;;;;;;;19.30;67.50;;;;;;4969958;28;95811;-60
2021/10/13 12:05:54;;;;;;;;;;;19.30;67.60;;;;;;4971601;28;96902;-59
2021/10/13 12:08:45;;;;;;;;;;;19.30;67.50;;;;;;4967722;28;95535;-59
2021/10/13 12:11:19;;;;;;;;;;;19.30;67.80;;;;;;4968182;28;96142;-60
2021/10/13 12:13:51;;;;;;;;;;;19.30;67.70;;;;;;4969830;28;95871;-60
2021/10/13 12:16:42;;;;;;;;;;;19.20;67.50;;;;;;4960788;28;95302;-59
2021/10/13 12:19:16;;;;;;;;;;;19.20;67.50;;;;;;4966355;28;96253;-60
2021/10/13 12:21:58;;;;;;;;;;;19.20;67.60;;;;;;4972837;28;96440;-60
2021/10/13 12:24:28;;;;;;;;;;;19.20;67.60;;;;;;4972030;28;95816;-60
2021/10/13 12:26:58;;;;;;;;;;;19.20;67.70;;;;;;4970967;28;95344;-60
2021/10/13 12:29:37;;;;;;;;;;;19.20;67.50;;;;;;4969585;28;95680;-60
2021/10/13 12:32:22;;;;;;;;;;;19.10;67.60;;;;;;4964853;28;96510;-59
2021/10/13 12:34:53;;;;;;;;;;;19.10;67.60;;;;;;4968085;28;95804;-60
2021/10/13 12:37:27;;;;;;;;;;;19.10;67.60;;;;;;4963063;28;95740;-59
2021/10/13 12:40:12;;;;;;;;;;;19.10;67.20;;;;;;4964396;28;95114;-60
2021/10/13 12:42:43;;;;;;;;;;;19.10;67.60;;;;;;4966939;28;96107;-60
2021/10/13 12:45:12;;;;;;;;;;;19.00;67.50;;;;;;4967359;28;95859;-61
2021/10/13 12:47:42;;;;;;;;;;;19.00;67.50;;;;;;4962028;28;95929;-59
2021/10/13 12:50:14;;;;;;;;;;;19.00;67.50;;;;;;4959357;28;96092;-60
2021/10/13 12:52:44;;;;;;;;;;;19.00;67.60;;;;;;4960655;28;96053;-59
2021/10/13 12:55:13;;;;;;;;;;;19.00;67.50;;;;;;4969083;28;95824;-60
2021/10/13 12:57:44;;;;;;;;;;;19.00;67.60;;;;;;4969232;28;96193;-60
2021/10/13 13:00:14;;;;;;;;;;;19.00;67.50;;;;;;4962041;28;95724;-61
2021/10/13 13:03:00;;;;;;;;;;;19.00;67.50;;;;;;4962365;28;95966;-60
2021/10/13 13:05:31;;;;;;;;;;;19.00;67.50;;;;;;4964609;28;95326;-62
2021/10/13 13:08:02;;;;;;;;;;;18.90;67.50;;;;;;4972592;28;95414;-60
2021/10/13 13:10:32;;;;;;;;;;;18.90;67.60;;;;;;4970711;28;95817;-60
2021/10/13 13:13:02;;;;;;;;;;;18.90;67.60;;;;;;4972162;28;96592;-60
2021/10/13 13:15:34;;;;;;;;;;;18.90;67.50;;;;;;4967408;28;96229;-59
2021/10/13 13:18:05;;;;;;;;;;;18.80;67.50;;;;;;4961618;28;96027;-58
2021/10/13 13:20:35;;;;;;;;;;;18.80;67.60;;;;;;4967906;28;95823;-57
2021/10/13 13:23:06;;;;;;;;;;;18.80;67.60;;;;;;4959878;28;96017;-58
2021/10/13 13:25:36;;;;;;;;;;;18.80;67.60;;;;;;4963532;28;96261;-63
2021/10/13 13:28:07;;;;;;;;;;;18.80;67.60;;;;;;4972513;28;95900;-62
2021/10/13 13:30:37;;;;;;;;;;;18.70;67.50;;;;;;4972693;28;95363;-60
2021/10/13 13:33:07;;;;;;;;;;;18.70;67.60;;;;;;4970431;28;96347;-61
2021/10/13 13:35:38;;;;;;;;;;;18.70;67.60;;;;;;4963270;28;97442;-60
2021/10/13 13:38:10;;;;;;;;;;;18.70;67.60;;;;;;4967890;28;95711;-63
2021/10/13 13:40:40;;;;;;;;;;;18.70;67.70;;;;;;4966029;28;95665;-64
2021/10/13 13:43:11;;;;;;;;;;;18.70;67.70;;;;;;4967688;28;95784;-60
2021/10/13 13:45:44;;;;;;;;;;;18.60;67.70;;;;;;4999049;28;97818;-60
2021/10/13 13:48:14;;;;;;;;;;;18.60;67.70;;;;;;4961587;28;96990;-65
2021/10/13 13:50:45;;;;;;;;;;;18.60;67.80;;;;;;4964748;28;95759;-63
2021/10/13 13:53:15;;;;;;;;;;;18.60;67.70;;;;;;4959003;28;95758;-63
2021/10/13 13:55:45;;;;;;;;;;;18.60;67.80;;;;;;4961816;28;96084;-63
2021/10/13 13:58:14;;;;;;;;;;;18.60;67.80;;;;;;4964462;28;98317;-63
2021/10/13 14:00:45;;;;;;;;;;;18.50;67.80;;;;;;4967604;28;95633;-64
2021/10/13 14:03:16;;;;;;;;;;;18.60;67.80;;;;;;4971192;28;95804;-63
2021/10/13 14:05:52;;;;;;;;;;;18.50;67.70;;;;;;4974983;28;95369;-64
2021/10/13 14:08:22;;;;;;;;;;;18.50;67.80;;;;;;4974238;28;96059;-65
2021/10/13 14:10:54;;;;;;;;;;;18.50;67.80;;;;;;4972874;28;95241;-64
2021/10/13 14:13:25;;;;;;;;;;;18.50;67.90;;;;;;4972165;28;95918;-62
2021/10/13 14:15:55;;;;;;;;;;;18.40;67.90;;;;;;4967604;28;95908;-61
2021/10/13 14:18:26;;;;;;;;;;;18.40;68.40;;;;;;4957488;28;97908;-60
2021/10/13 14:20:57;;;;;;;;;;;18.40;68.50;;;;;;4968346;28;96287;-61
2021/10/13 14:23:28;;;;;;;;;;;18.40;68.70;;;;;;4970470;28;95914;-61
2021/10/13 14:25:58;;;;;;;;;;;18.50;69.00;;;;;;4966597;28;95899;-59
2021/10/13 14:28:29;;;;;;;;;;;18.50;69.20;;;;;;4971224;28;96577;-60
2021/10/13 14:30:59;;;;;;;;;;;18.50;69.30;;;;;;4969806;28;95315;-62
2021/10/13 14:33:47;;;;;;;;;;;18.50;69.40;;;;;;4970712;28;95326;-61
2021/10/13 14:36:18;;;;;;;;;;;18.60;69.70;;;;;;4970114;28;95754;-61
2021/10/13 14:38:48;;;;;;;;;;;18.70;69.60;;;;;;4968548;28;95716;-59
2021/10/13 14:41:18;;;;;;;;;;;18.70;70.20;;;;;;4967518;28;95844;-61
2021/10/13 14:43:47;;;;;;;;;;;18.70;69.80;;;;;;4969575;28;97612;-57
2021/10/13 14:46:17;;;;;;;;;;;18.80;69.90;;;;;;4966939;28;96579;-59
2021/10/13 14:48:51;;;;;;;;;;;18.80;69.80;;;;;;4969838;28;95814;-60